Time;durP1;ratioP1;P1;durP2;ratioP2;P2;SDS_P1;SDS_P2;PMS_P1;PMS_P2;Temp;Humidity;BMP_temperature;BMP_pressure;BME280_temperature;BME280_humidity;BME280_pressure;Samples;Min_cycle;Max_cycle;Signal;HPM_P1;HPM_P2
2021/03/20 00:01:00;;;;;;;2.45;1.70;;;3.10;75.50;;;2.55;55.76;100756.66;4989993;28;20049;-49
2021/03/20 00:03:26;;;;;;;3.65;2.17;;;3.10;76.00;;;2.49;55.55;100762.16;4991268;28;20427;-46
2021/03/20 00:05:54;;;;;;;5.30;2.03;;;3.10;76.00;;;2.49;55.71;100767.31;4990738;28;20045;-51
2021/03/20 00:08:23;;;;;;;2.58;1.40;;;3.10;76.00;;;2.49;55.70;100761.31;4974125;28;20035;-42
2021/03/20 00:10:50;;;;;;;3.72;1.85;;;3.10;76.40;;;2.49;55.75;100759.59;4973506;28;20034;-53
2021/03/20 00:13:21;;;;;;;3.33;1.75;;;3.10;76.40;;;2.48;56.84;100751.94;4990481;28;20360;-48
2021/03/20 00:15:48;;;;;;;4.03;1.83;;;3.10;77.60;;;2.41;56.65;100759.19;5005814;28;20406;-46
2021/03/20 00:18:14;;;;;;;4.53;1.92;;;3.00;77.80;;;2.37;56.73;100754.28;4989631;28;20065;-50
2021/03/20 00:20:42;;;;;;;3.88;2.10;;;3.00;78.20;;;2.29;56.88;100749.59;4990388;28;20394;-46
2021/03/20 00:23:10;;;;;;;3.05;1.30;;;2.90;78.00;;;2.28;56.72;100743.63;4988448;28;20038;-51
2021/03/20 00:25:37;;;;;;;3.22;1.75;;;2.90;78.10;;;2.29;56.26;100750.44;4989677;28;20030;-52
2021/03/20 00:28:06;;;;;;;4.38;1.98;;;2.90;78.10;;;2.19;56.99;100743.31;4989495;28;20069;-49
2021/03/20 00:30:33;;;;;;;3.28;1.45;;;2.80;78.80;;;2.14;56.80;100746.13;4986875;28;20058;-51
2021/03/20 00:32:59;;;;;;;3.60;1.40;;;2.80;78.40;;;2.14;56.92;100740.97;4981769;28;20030;-49
2021/03/20 00:35:25;;;;;;;3.08;1.52;;;2.80;79.20;;;2.12;56.65;100747.94;4987642;28;20043;-42
2021/03/20 00:37:54;;;;;;;3.03;1.35;;;2.70;79.00;;;2.11;56.55;100746.28;4985914;28;20039;-44
2021/03/20 00:40:26;;;;;;;6.85;1.65;;;2.70;78.30;;;2.25;56.13;100743.78;4985190;28;20090;-46
2021/03/20 00:42:53;;;;;;;2.80;1.05;;;2.70;77.70;;;2.39;55.49;100747.31;4980131;28;20077;-47
2021/03/20 00:45:23;;;;;;;3.60;1.30;;;2.90;76.90;;;2.59;54.06;100741.91;4988671;28;20045;-51
2021/03/20 00:47:49;;;;;;;3.58;1.30;;;3.00;74.90;;;2.78;52.40;100750.22;4988569;28;20081;-43
2021/03/20 00:50:19;;;;;;;5.90;1.23;;;3.20;72.40;;;2.57;52.57;100752.28;4979863;28;20169;-48
2021/03/20 00:52:45;;;;;;;8.35;2.92;;;3.20;71.60;;;2.40;52.87;100746.41;4984771;28;20041;-47
2021/03/20 00:55:12;;;;;;;4.68;1.98;;;3.00;71.30;;;2.39;53.09;100737.88;4980184;28;20035;-55
2021/03/20 00:57:38;;;;;;;5.93;1.55;;;3.00;72.20;;;2.43;53.40;100746.25;4983376;28;20031;-51
2021/03/20 01:00:16;;;;;;;7.65;3.13;;;3.00;73.20;;;2.44;53.64;100740.19;4981084;28;20030;-53
2021/03/20 01:02:42;;;;;;;4.13;1.90;;;3.00;73.50;;;2.39;54.30;100744.75;4981429;28;20824;-47
2021/03/20 01:05:09;;;;;;;5.13;2.00;;;3.00;74.80;;;2.24;54.87;100751.59;4985694;28;20041;-55
2021/03/20 01:07:35;;;;;;;2.42;1.13;;;2.90;75.90;;;2.26;54.74;100748.03;4989711;28;20056;-51
2021/03/20 01:10:07;;;;;;;2.97;1.30;;;2.80;75.50;;;2.22;54.64;100741.38;4990594;28;20506;-51
2021/03/20 01:12:33;;;;;;;3.42;1.30;;;2.80;75.60;;;2.25;55.13;100748.94;4989797;28;20042;-47
2021/03/20 01:14:59;;;;;;;3.15;1.35;;;2.80;76.00;;;2.18;55.96;100732.19;4989422;28;20042;-50
2021/03/20 01:17:25;;;;;;;3.80;1.63;;;2.80;76.80;;;2.05;55.94;100738.91;4990406;28;20054;-47
2021/03/20 01:19:51;;;;;;;4.25;1.33;;;2.70;77.30;;;2.01;56.13;100739.97;4988909;28;20057;-49
2021/03/20 01:22:17;;;;;;;2.35;1.40;;;2.60;78.20;;;1.99;56.10;100741.81;4989636;28;20056;-54
2021/03/20 01:24:45;;;;;;;3.20;1.50;;;2.60;78.20;;;2.04;56.24;100739.00;4989395;28;20034;-48
2021/03/20 01:27:11;;;;;;;4.60;1.92;;;2.60;78.50;;;2.00;56.45;100738.31;4990761;28;20046;-45
2021/03/20 01:29:37;;;;;;;3.95;1.30;;;2.50;78.60;;;2.10;55.72;100718.09;4989418;28;20099;-54
2021/03/20 01:32:03;;;;;;;4.78;2.10;;;2.60;78.00;;;2.06;55.95;100735.44;4990132;28;20034;-44
2021/03/20 01:34:29;;;;;;;3.20;1.50;;;2.60;78.50;;;2.00;56.28;100722.91;4989064;28;20089;-42
2021/03/20 01:36:55;;;;;;;2.72;1.20;;;2.60;78.30;;;1.92;56.25;100719.91;4990243;28;20470;-48
2021/03/20 01:39:21;;;;;;;4.20;1.80;;;2.50;78.60;;;1.80;56.76;100726.56;4989196;28;20066;-54
2021/03/20 01:41:48;;;;;;;3.58;1.58;;;2.40;79.50;;;1.76;56.80;100721.69;4989088;28;20405;-48
2021/03/20 01:44:23;;;;;;;2.10;1.25;;;2.40;79.60;;;1.70;57.45;100719.44;4988754;28;20537;-58
2021/03/20 01:46:55;;;;;;;2.72;1.08;;;2.30;80.20;;;1.70;57.25;100719.44;4989337;28;20137;-50
2021/03/20 01:49:40;;;;;;;2.67;1.15;;;2.30;79.90;;;1.75;56.86;100715.72;4988864;28;20046;-51
2021/03/20 01:52:19;;;;;;;3.67;1.48;;;2.30;79.50;;;1.73;57.09;100719.28;4988509;28;20074;-44
2021/03/20 01:55:05;;;;;;;2.40;1.05;;;2.30;79.70;;;1.73;57.13;100714.97;4988784;28;20121;-54
2021/03/20 01:57:41;;;;;;;6.75;2.83;;;2.30;79.90;;;1.70;56.48;100717.69;5004187;28;20077;-51
2021/03/20 02:00:13;;;;;;;7.55;3.60;;;2.30;79.50;;;1.72;56.18;100710.72;4988722;28;20064;-44
2021/03/20 02:02:40;;;;;;;4.78;1.98;;;2.30;79.30;;;1.94;55.22;100702.69;4990025;28;20433;-46
2021/03/20 02:05:07;;;;;;;2.95;1.17;;;2.40;77.70;;;2.06;54.54;100702.00;4988209;28;20030;-45
2021/03/20 02:07:33;;;;;;;5.15;1.63;;;2.60;76.50;;;1.95;55.09;100710.31;4987891;28;20038;-50
2021/03/20 02:09:59;;;;;;;2.92;1.30;;;2.50;77.50;;;2.04;54.79;100708.97;4986936;28;20041;-52
2021/03/20 02:12:33;;;;;;;3.05;1.20;;;2.60;76.80;;;2.02;54.89;100710.81;4988581;28;20042;-52
2021/03/20 02:15:13;;;;;;;3.35;1.48;;;2.60;76.70;;;1.90;55.76;100716.59;4987177;28;20056;-43
2021/03/20 02:17:56;;;;;;;4.45;1.15;;;2.50;77.80;;;1.80;56.52;100710.31;5004405;28;20440;-49
2021/03/20 02:21:07;;;;;;;3.05;1.33;;;2.40;78.30;;;1.59;57.36;100708.00;4987672;28;20030;-51
2021/03/20 02:24:16;;;;;;;3.03;1.45;;;2.30;80.10;;;1.20;57.94;100710.06;4985610;28;20093;-47
2021/03/20 02:27:12;;;;;;;7.22;1.55;;;1.90;79.70;;;1.03;58.00;100707.53;4983415;28;20458;-50
2021/03/20 02:30:15;;;;;;;4.20;2.22;;;1.70;80.90;;;0.94;59.56;100702.00;4985860;28;20073;-44
2021/03/20 02:33:01;;;;;;;2.53;1.10;;;1.60;82.40;;;0.86;59.58;100704.09;4954553;28;20578;-46
2021/03/20 02:35:42;;;;;;;4.10;1.48;;;1.50;84.40;;;0.86;61.57;100709.25;4973810;28;20053;-46
2021/03/20 02:38:13;;;;;;;2.80;1.40;;;1.40;88.10;;;0.90;62.10;100704.78;4985212;28;20212;-49
2021/03/20 02:41:09;;;;;;;3.10;1.20;;;1.40;90.30;;;0.88;62.00;100698.91;4969503;28;20057;-51
2021/03/20 02:44:05;;;;;;;4.20;1.20;;;1.50;90.40;;;0.80;62.38;100698.44;4985180;28;20210;-48
2021/03/20 02:46:38;;;;;;;3.80;1.23;;;1.40;90.90;;;0.82;61.09;100689.78;4981353;28;20314;-54
2021/03/20 02:49:39;;;;;;;4.05;1.38;;;1.40;92.30;;;0.88;62.23;100691.22;4981956;28;20381;-48
2021/03/20 02:52:11;;;;;;;3.28;1.42;;;1.40;92.40;;;0.89;61.13;100690.31;4984216;28;20101;-47
2021/03/20 02:54:50;;;;;;;4.82;1.20;;;1.40;92.20;;;0.90;61.85;100691.97;4985784;28;20382;-51
2021/03/20 02:57:44;;;;;;;3.45;1.40;;;1.40;92.60;;;0.86;62.40;100691.28;4985440;28;20054;-48
2021/03/20 03:00:39;;;;;;;3.97;1.23;;;1.50;92.50;;;0.76;62.99;100695.22;4975966;28;20510;-49
2021/03/20 03:03:08;;;;;;;3.13;1.13;;;1.40;93.90;;;0.80;61.55;100696.72;4996517;28;20577;-50
2021/03/20 03:06:12;;;;;;;2.75;1.27;;;1.40;94.20;;;0.75;62.98;100693.56;5002015;28;20038;-48
2021/03/20 03:08:46;;;;;;;5.55;1.55;;;1.40;94.20;;;0.61;61.66;100695.97;5002654;28;20551;-48
2021/03/20 03:11:22;;;;;;;3.58;1.35;;;1.20;94.60;;;0.45;62.31;100697.63;4999970;28;20039;-57
2021/03/20 03:14:02;;;;;;;4.65;1.85;;;1.10;95.00;;;0.38;63.18;100693.72;4983772;28;20043;-47
2021/03/20 03:16:42;;;;;;;4.78;1.95;;;1.00;95.30;;;0.24;63.30;100694.38;4985956;28;20514;-51
2021/03/20 03:19:22;;;;;;;4.30;1.88;;;0.90;96.40;;;0.09;63.85;100695.09;5003079;28;20042;-44
2021/03/20 03:21:55;;;;;;;3.20;1.27;;;0.80;97.80;;;0.00;63.94;100702.28;4986892;28;20165;-50
2021/03/20 03:24:25;;;;;;;3.25;1.85;;;0.70;98.70;;;-0.08;64.39;100701.03;4988161;28;20038;-56
2021/03/20 03:27:08;;;;;;;5.20;2.03;;;0.60;99.70;;;-0.20;65.55;100697.28;4986062;28;20058;-46
2021/03/20 03:29:36;;;;;;;3.50;1.73;;;0.50;99.90;;;-0.29;65.40;100696.88;4990538;28;20042;-51
2021/03/20 03:32:17;;;;;;;6.80;2.40;;;0.40;99.90;;;-0.30;66.15;100706.28;4991976;28;20733;-49
2021/03/20 03:34:50;;;;;;;3.63;1.88;;;0.30;99.90;;;-0.44;66.43;100698.38;4990679;28;20050;-50
2021/03/20 03:37:35;;;;;;;4.82;2.20;;;0.20;99.90;;;-0.52;66.28;100709.00;4986687;28;20046;-41
2021/03/20 03:42:36;;;;;;;3.25;1.70;;;0.10;99.90;;;-0.38;65.92;100711.75;4940499;23;20058;-51
2021/03/20 03:45:10;;;;;;;3.78;2.38;;;0.20;99.90;;;-0.44;66.59;100709.47;5012043;28;20366;-46
2021/03/20 03:47:37;;;;;;;5.97;3.00;;;0.20;99.90;;;-0.51;66.27;100712.38;5010263;28;20531;-53
2021/03/20 03:50:14;;;;;;;3.97;2.15;;;0.10;99.90;;;-0.55;66.15;100711.69;5012102;28;20129;-44
2021/03/20 03:52:40;;;;;;;5.93;2.67;;;0.10;99.90;;;-0.48;66.50;100713.09;5012031;28;20038;-51
2021/03/20 03:55:07;;;;;;;5.50;2.50;;;0.10;99.90;;;-0.41;66.05;100706.75;5010277;28;20094;-42
2021/03/20 03:58:10;;;;;;;3.15;1.33;;;0.20;99.90;;;-0.26;67.81;100717.22;5010360;28;20080;-54
2021/03/20 04:01:08;;;;;;;5.18;2.47;;;0.20;99.90;;;-0.21;65.95;100720.41;5011933;28;20232;-43
2021/03/20 04:04:01;;;;;;;5.50;3.45;;;0.40;99.90;;;-0.35;66.07;100716.72;5011602;28;20098;-48
2021/03/20 04:06:46;;;;;;;9.68;3.33;;;0.30;99.90;;;-0.40;66.28;100716.09;5011442;28;20096;-49
2021/03/20 04:09:20;;;;;;;6.70;3.17;;;0.20;99.90;;;-0.49;65.50;100719.09;5010172;28;20092;-55
2021/03/20 04:12:32;;;;;;;12.60;3.83;;;0.20;99.90;;;-0.64;68.13;100716.38;5011634;28;20192;-58
2021/03/20 04:15:14;;;;;;;4.43;2.63;;;0.00;99.90;;;-0.61;67.08;100719.63;4974769;28;20607;-49
2021/03/20 04:18:16;;;;;;;6.07;3.25;;;0.00;99.90;;;-0.69;68.84;100719.13;5011640;28;20053;-47
2021/03/20 04:21:03;;;;;;;8.35;2.55;;;0.00;99.90;;;-0.81;67.19;100725.59;5011209;28;20034;-58
2021/03/20 04:23:36;;;;;;;9.05;3.33;;;-0.20;99.90;;;-0.87;67.12;100720.75;5011463;28;20042;-47
2021/03/20 04:26:04;;;;;;;11.52;3.20;;;-0.20;99.90;;;-0.93;66.82;100720.19;5011434;28;20033;-49
2021/03/20 04:28:57;;;;;;;5.38;2.83;;;-0.20;99.90;;;-0.91;67.20;100723.50;5011378;28;20057;-53
2021/03/20 04:31:49;;;;;;;7.13;2.45;;;-0.30;99.90;;;-0.93;67.12;100717.63;5009561;28;20490;-44
2021/03/20 04:34:51;;;;;;;6.47;2.83;;;-0.30;99.90;;;-0.96;68.05;100722.91;5009865;28;20385;-47
2021/03/20 04:37:26;;;;;;;6.50;3.17;;;-0.40;99.90;;;-0.97;67.74;100726.34;5006007;28;20057;-51
2021/03/20 04:39:55;;;;;;;5.20;2.58;;;-0.40;99.90;;;-1.01;67.85;100721.38;4993553;28;20030;-46
2021/03/20 04:42:30;;;;;;;4.75;2.17;;;-0.40;99.90;;;-0.99;68.14;100725.59;5010695;28;20057;-45
2021/03/20 04:45:01;;;;;;;6.20;2.65;;;-0.40;99.90;;;-0.97;67.72;100728.91;5010828;28;20125;-49
2021/03/20 04:47:29;;;;;;;6.90;3.53;;;-0.40;99.90;;;-1.06;68.60;100723.28;5010993;28;20438;-48
2021/03/20 04:50:04;;;;;;;4.18;1.90;;;-0.40;99.90;;;-1.03;68.28;100730.81;5010723;28;20114;-52
2021/03/20 04:52:35;;;;;;;7.32;2.83;;;-0.50;99.90;;;-0.86;67.78;100727.53;5010651;28;20041;-48
2021/03/20 04:55:06;;;;;;;8.10;3.58;;;-0.30;99.90;;;-0.90;67.82;100725.16;5010944;28;20113;-46
2021/03/20 04:57:33;;;;;;;7.65;3.47;;;-0.30;99.90;;;-1.00;68.24;100727.31;5010508;28;20037;-49
2021/03/20 05:00:42;;;;;;;10.18;3.65;;;-0.30;99.90;;;-1.01;70.06;100739.28;5009057;28;20488;-48
2021/03/20 05:03:45;;;;;;;8.63;3.30;;;-0.40;99.90;;;-0.98;69.62;100737.47;5010676;28;20048;-52
2021/03/20 05:06:15;;;;;;;6.47;3.25;;;-0.40;99.90;;;-1.02;68.02;100737.59;5009322;28;20065;-53
2021/03/20 05:09:06;;;;;;;10.85;4.55;;;-0.40;99.90;;;-1.00;68.70;100745.22;5010896;28;20116;-53
2021/03/20 05:11:48;;;;;;;7.85;3.90;;;-0.40;99.90;;;-1.04;68.61;100749.63;5008777;28;20642;-46
2021/03/20 05:14:37;;;;;;;9.43;4.65;;;-0.40;99.90;;;-1.05;68.62;100747.97;5010279;28;20076;-45
2021/03/20 05:17:12;;;;;;;8.20;4.80;;;-0.40;99.90;;;-0.99;67.94;100746.03;5010566;28;20052;-44
2021/03/20 05:19:38;;;;;;;9.20;4.35;;;-0.40;99.90;;;-0.99;67.71;100746.88;5008838;28;20133;-46
2021/03/20 05:22:05;;;;;;;11.07;4.10;;;-0.40;99.90;;;-0.96;67.75;100754.44;5010399;28;20263;-51
2021/03/20 05:24:36;;;;;;;8.75;4.57;;;-0.40;99.90;;;-0.93;67.68;100751.72;5008779;28;20043;-53
2021/03/20 05:27:06;;;;;;;6.57;4.03;;;-0.30;99.90;;;-0.90;67.56;100754.13;5008946;28;20042;-50
2021/03/20 05:29:32;;;;;;;7.78;3.92;;;-0.20;99.90;;;-0.84;67.59;100763.28;5010117;28;20037;-48
2021/03/20 05:31:59;;;;;;;7.70;4.22;;;-0.30;99.90;;;-0.88;67.56;100764.31;5008407;28;20091;-51
2021/03/20 05:34:39;;;;;;;10.70;5.45;;;-0.20;99.90;;;-0.84;68.43;100758.16;5010202;28;20133;-57
2021/03/20 05:37:09;;;;;;;8.73;4.35;;;-0.20;99.90;;;-0.80;67.75;100767.38;5009922;28;20524;-55
2021/03/20 05:39:35;;;;;;;15.25;7.05;;;-0.20;99.90;;;-0.62;68.26;100771.72;5009683;28;20125;-51
2021/03/20 05:42:28;;;;;;;19.40;7.95;;;0.00;99.90;;;1.57;62.31;100779.16;5009334;28;20134;-54
2021/03/20 05:45:36;;;;;;;17.30;8.32;;;2.00;99.90;;;4.07;56.89;100777.66;5008605;28;20357;-50
2021/03/20 05:48:23;;;;;;;10.90;5.20;;;5.10;88.30;;;5.42;52.10;100778.28;5009711;28;20029;-56
2021/03/20 05:51:19;;;;;;;12.38;6.90;;;7.40;71.90;;;6.61;50.12;100780.28;5008734;28;20492;-46
2021/03/20 05:54:36;;;;;;;8.10;4.55;;;8.90;63.50;;;6.87;47.46;100789.53;5009553;28;20057;-49
2021/03/20 05:57:38;;;;;;;12.48;5.65;;;9.90;56.10;;;7.54;47.15;100784.50;4983229;28;20132;-51
2021/03/20 06:00:45;;;;;;;10.27;5.97;;;10.70;54.30;;;7.02;47.18;100791.94;5009602;28;20045;-52
2021/03/20 06:03:16;;;;;;;12.88;6.68;;;11.20;51.20;;;6.87;49.28;100797.31;5009430;28;20053;-52
2021/03/20 06:05:53;;;;;;;10.27;6.18;;;11.10;52.10;;;7.56;46.70;100792.94;5009631;28;20145;-51
2021/03/20 06:08:30;;;;;;;10.98;6.22;;;11.40;51.00;;;7.47;47.49;100788.50;5009385;28;20030;-53
2021/03/20 06:11:38;;;;;;;12.57;6.43;;;11.80;50.50;;;7.41;46.17;100804.50;5009635;28;20050;-52
2021/03/20 06:14:29;;;;;;;12.38;6.95;;;12.10;48.40;;;8.11;43.91;100804.25;5009413;28;20042;-54
2021/03/20 06:17:35;;;;;;;10.98;6.28;;;12.60;46.50;;;7.93;44.08;100798.75;5009240;28;20056;-56
2021/03/20 06:20:44;;;;;;;13.13;7.90;;;12.50;46.20;;;7.42;45.81;100795.78;5009147;28;20073;-46
2021/03/20 06:24:07;;;;;;;19.90;6.60;;;11.40;47.60;;;6.65;45.92;100804.97;5007761;28;20030;-47
2021/03/20 06:26:39;;;;;;;15.90;8.25;;;9.40;52.10;;;5.95;47.13;100808.25;5009178;28;20390;-50
2021/03/20 06:29:28;;;;;;;12.95;6.97;;;7.70;55.70;;;4.92;50.42;100820.38;5007905;28;20044;-54
2021/03/20 06:32:01;;;;;;;13.95;8.23;;;6.40;59.70;;;4.28;52.54;100815.00;4988002;28;20398;-59
2021/03/20 06:34:35;;;;;;;17.27;7.63;;;5.50;64.40;;;3.93;53.57;100827.50;4994144;28;20508;-54
2021/03/20 06:37:23;;;;;;;17.23;9.57;;;5.00;66.00;;;3.93;53.16;100827.50;5009055;28;20045;-47
2021/03/20 06:40:11;;;;;;;17.17;10.02;;;4.80;66.50;;;3.85;53.91;100814.25;4991302;28;20149;-58
2021/03/20 06:42:38;;;;;;;16.98;8.68;;;4.70;67.80;;;4.01;53.38;100808.97;4988972;28;20099;-53
2021/03/20 06:45:19;;;;;;;15.52;7.40;;;4.70;68.40;;;4.27;52.44;100809.94;4994887;28;20042;-47
2021/03/20 06:47:49;;;;;;;15.65;8.25;;;5.00;68.30;;;4.34;52.43;100824.09;4989318;28;20026;-56
2021/03/20 06:50:31;;;;;;;22.23;10.52;;;5.00;68.20;;;4.28;53.56;100830.47;5008476;28;20038;-57
2021/03/20 06:53:06;;;;;;;17.85;9.55;;;5.00;71.60;;;4.34;53.61;100822.34;5007690;28;20034;-53
2021/03/20 06:55:36;;;;;;;17.75;8.85;;;5.00;70.60;;;4.61;52.49;100839.63;4989261;28;20455;-51
2021/03/20 06:58:19;;;;;;;14.70;8.20;;;5.20;70.50;;;4.90;51.04;100825.66;4989185;28;20038;-57
2021/03/20 07:00:46;;;;;;;16.80;7.82;;;5.40;68.60;;;5.15;50.82;100830.06;4987685;28;20081;-55
2021/03/20 07:03:39;;;;;;;15.93;8.80;;;5.90;68.00;;;5.33;49.96;100828.81;4989262;28;20030;-59
2021/03/20 07:06:51;;;;;;;10.70;5.65;;;6.20;66.50;;;5.51;47.96;100847.44;5023509;28;20045;-52
2021/03/20 07:09:17;;;;;;;10.00;5.57;;;6.40;64.50;;;5.29;49.48;100842.03;4999246;28;20051;-51
2021/03/20 07:12:01;;;;;;;8.25;5.32;;;6.10;64.60;;;4.81;49.25;100840.91;4999296;28;20172;-48
2021/03/20 07:14:52;;;;;;;7.43;4.03;;;5.80;65.60;;;4.87;50.12;100851.66;5001593;28;20049;-53
2021/03/20 07:17:29;;;;;;;8.00;4.03;;;5.50;68.30;;;5.33;48.45;100843.50;5007100;28;20033;-49
2021/03/20 07:20:08;;;;;;;6.72;4.20;;;5.80;66.50;;;5.63;48.14;100848.38;4988609;28;20057;-52
2021/03/20 07:22:49;;;;;;;7.70;3.75;;;6.10;65.40;;;6.08;45.63;100853.97;4988776;28;20073;-51
2021/03/20 07:25:54;;;;;;;8.23;4.32;;;6.50;64.00;;;6.33;45.54;100846.13;4988798;28;20033;-50
2021/03/20 07:28:29;;;;;;;6.93;3.58;;;6.70;62.50;;;6.50;45.21;100850.13;4976994;28;20051;-45
2021/03/20 07:31:11;;;;;;;7.15;4.38;;;7.00;60.90;;;6.71;42.49;100858.09;5003606;28;20038;-49
2021/03/20 07:33:43;;;;;;;9.02;5.10;;;7.20;60.60;;;6.75;44.71;100855.19;4991929;28;20042;-49
2021/03/20 07:36:35;;;;;;;9.60;3.90;;;7.30;60.10;;;6.93;42.13;100843.50;4999100;28;20074;-47
2021/03/20 07:39:08;;;;;;;8.30;3.78;;;7.50;59.30;;;6.98;44.30;100854.34;5008114;28;20361;-50
2021/03/20 07:41:54;;;;;;;5.82;4.28;;;7.50;59.50;;;7.10;42.79;100862.13;4992952;28;20042;-44
2021/03/20 07:44:45;;;;;;;5.03;3.78;;;7.60;59.00;;;7.40;43.29;100853.88;4989338;28;20622;-50
2021/03/20 07:47:14;;;;;;;3.17;2.72;;;7.80;59.10;;;7.53;42.67;100863.22;4988556;28;20088;-52
2021/03/20 07:49:40;;;;;;;4.00;2.95;;;8.00;58.50;;;7.79;42.72;100850.84;5005619;28;20064;-52
2021/03/20 07:52:27;;;;;;;3.55;2.45;;;8.20;58.10;;;7.78;40.87;100856.16;5006695;28;20065;-46
2021/03/20 07:55:17;;;;;;;7.85;2.72;;;8.30;56.70;;;7.90;40.28;100858.66;4988990;28;20042;-43
2021/03/20 07:58:02;;;;;;;4.88;2.67;;;8.40;56.70;;;7.74;40.09;100865.13;4988441;28;20073;-50
2021/03/20 08:00:40;;;;;;;3.17;1.92;;;8.40;56.10;;;7.59;42.00;100867.91;4988374;28;20042;-50
2021/03/20 08:03:44;;;;;;;4.13;2.38;;;8.20;56.60;;;7.68;39.61;100868.16;4992669;28;20034;-59
2021/03/20 08:06:16;;;;;;;4.57;2.35;;;8.20;55.70;;;7.81;41.04;100869.72;5007760;28;20042;-51
2021/03/20 08:08:42;;;;;;;5.32;2.42;;;8.20;56.20;;;7.88;42.22;100877.88;4997475;28;20065;-44
2021/03/20 08:11:33;;;;;;;2.75;2.28;;;8.30;57.50;;;8.14;41.93;100868.88;4988323;28;20745;-46
2021/03/20 08:14:23;;;;;;;3.15;2.00;;;8.50;57.30;;;8.63;38.61;100872.84;4998284;28;20105;-47
2021/03/20 08:16:51;;;;;;;3.38;1.83;;;9.00;55.40;;;8.78;40.29;100866.44;5011224;28;20041;-51
2021/03/20 08:19:19;;;;;;;2.67;1.67;;;9.20;55.30;;;8.84;39.61;100871.16;4998554;28;20043;-54
2021/03/20 08:22:07;;;;;;;5.35;1.77;;;9.40;53.60;;;8.40;37.99;100882.47;4991495;28;20057;-48
2021/03/20 08:25:04;;;;;;;3.92;2.13;;;9.10;52.20;;;8.49;39.01;100881.75;4991481;28;20413;-55
2021/03/20 08:27:50;;;;;;;2.25;1.35;;;9.00;53.70;;;8.26;36.73;100874.91;4984702;28;20054;-48
2021/03/20 08:30:38;;;;;;;2.55;2.17;;;8.90;51.60;;;8.23;37.87;100878.56;5006348;28;20458;-54
2021/03/20 08:33:40;;;;;;;2.55;1.63;;;8.80;51.90;;;7.86;39.31;100879.75;4996609;28;20046;-54
2021/03/20 08:36:37;;;;;;;4.80;1.85;;;8.60;53.00;;;8.25;38.48;100884.47;4991336;28;20398;-49
2021/03/20 08:39:41;;;;;;;3.53;2.17;;;8.70;53.30;;;8.62;37.26;100877.22;4992598;28;20050;-46
2021/03/20 08:42:47;;;;;;;3.00;1.40;;;8.90;54.00;;;8.72;36.92;100881.69;4990910;28;20077;-51
2021/03/20 08:45:26;;;;;;;2.13;1.33;;;9.20;52.20;;;9.17;36.78;100885.78;4988497;28;20052;-49
2021/03/20 08:48:21;;;;;;;2.97;1.55;;;9.50;51.20;;;8.64;37.33;100887.50;4990867;28;20588;-55
2021/03/20 08:51:08;;;;;;;2.40;1.48;;;9.50;50.90;;;8.01;37.55;100878.59;5001612;28;20465;-55
2021/03/20 08:53:56;;;;;;;5.00;2.08;;;8.90;51.50;;;8.14;38.40;100881.88;5006014;28;20049;-46
2021/03/20 08:56:50;;;;;;;2.83;1.70;;;8.60;52.50;;;8.58;36.39;100881.00;4994864;28;20375;-47
2021/03/20 08:59:39;;;;;;;2.72;1.33;;;9.00;52.40;;;8.60;36.76;100886.06;4989472;28;20358;-48
2021/03/20 09:02:39;;;;;;;2.97;1.05;;;9.00;51.00;;;8.27;38.18;100882.56;4982259;23;20403;-53
2021/03/20 09:05:47;;;;;;;1.52;0.82;;;8.90;52.20;;;8.53;36.35;100884.91;4951180;28;20115;-52
2021/03/20 09:08:41;;;;;;;3.15;1.50;;;8.90;50.60;;;8.67;36.31;100889.03;4911039;29;20521;-49
2021/03/20 09:11:12;;;;;;;2.45;1.02;;;9.10;50.80;;;8.84;35.30;100872.91;4899993;29;20851;-57
2021/03/20 09:13:45;;;;;;;1.45;0.80;;;9.30;49.70;;;8.53;35.04;100882.31;4906860;29;20202;-48
2021/03/20 09:16:38;;;;;;;1.42;0.70;;;9.10;49.80;;;8.48;35.17;100882.69;4927612;29;20111;-51
2021/03/20 09:19:31;;;;;;;3.08;1.10;;;9.10;48.70;;;8.40;35.43;100877.28;4896766;29;20056;-51
2021/03/20 09:22:12;;;;;;;2.67;1.15;;;8.90;49.00;;;8.45;35.88;100882.94;4924226;29;20604;-55
2021/03/20 09:25:05;;;;;;;2.45;1.17;;;8.90;49.40;;;8.93;34.54;100874.78;4899620;29;20031;-52
2021/03/20 09:28:05;;;;;;;2.60;0.80;;;9.20;49.70;;;9.14;33.21;100888.63;4929830;29;20139;-55
2021/03/20 09:30:50;;;;;;;1.30;0.40;;;9.50;47.20;;;9.40;33.65;100889.09;4913529;29;20092;-51
2021/03/20 09:33:19;;;;;;;2.63;0.40;;;9.70;47.40;;;8.68;32.45;100917.47;4929292;29;20054;-53
2021/03/20 09:35:55;;;;;;;0.70;0.30;;;9.50;44.80;;;8.35;33.22;100876.81;4929136;29;20048;-49
2021/03/20 09:38:33;;;;;;;2.13;0.30;;;9.00;46.30;;;8.28;33.15;100871.25;4936441;28;20059;-48
2021/03/20 09:41:00;;;;;;;2.55;0.70;;;8.90;46.30;;;8.32;34.70;100885.66;4961596;28;20042;-54
2021/03/20 09:44:05;;;;;;;2.60;1.00;;;8.80;48.00;;;8.96;35.39;100890.94;4954205;28;20047;-47
2021/03/20 09:46:46;;;;;;;1.75;0.70;;;9.10;49.50;;;9.58;34.79;100887.53;4947586;28;20544;-53
2021/03/20 09:49:15;;;;;;;1.58;0.68;;;9.60;49.20;;;9.90;33.55;100882.25;4949150;28;20046;-56
2021/03/20 09:51:59;;;;;;;1.00;0.43;;;10.20;47.00;;;9.73;31.32;100888.06;4961619;28;20047;-53
2021/03/20 09:54:43;;;;;;;0.85;0.35;;;10.10;44.50;;;9.22;32.01;100881.03;4948903;28;20043;-53
2021/03/20 09:57:12;;;;;;;1.23;0.47;;;9.90;44.10;;;9.22;33.20;100875.81;4953735;28;20038;-51
2021/03/20 09:59:37;;;;;;;1.10;0.57;;;9.60;45.30;;;9.65;33.28;100887.88;4951077;28;20175;-58
2021/03/20 10:02:04;;;;;;;1.20;0.50;;;9.90;46.50;;;9.44;31.99;100879.25;4950531;28;20716;-48
2021/03/20 10:04:54;;;;;;;1.10;0.60;;;10.00;44.70;;;9.23;32.59;100874.88;4949479;29;20043;-49
2021/03/20 10:07:20;;;;;;;1.20;0.50;;;9.80;44.90;;;9.91;31.79;100881.31;4954169;28;20043;-53
2021/03/20 10:10:15;;;;;;;0.85;0.40;;;10.20;44.60;;;8.92;30.70;100886.94;4958838;28;20134;-48
2021/03/20 10:12:44;;;;;;;0.90;0.40;;;9.80;42.50;;;8.92;31.75;100891.31;4951530;28;20050;-56
2021/03/20 10:18:04;;;;;;;0.95;0.40;;;9.30;44.20;;;8.52;31.09;100875.47;4954962;28;20046;-45
2021/03/20 10:20:55;;;;;;;1.13;0.50;;;9.10;43.40;;;8.52;30.94;100883.25;4951114;28;20046;-48
2021/03/20 10:23:48;;;;;;;1.65;0.60;;;9.00;43.70;;;8.79;31.88;100895.84;4949296;29;20059;-59
2021/03/20 10:26:27;;;;;;;1.15;0.55;;;9.00;45.00;;;9.06;31.32;100878.00;4950324;28;20043;-54
2021/03/20 10:29:03;;;;;;;1.70;0.50;;;9.30;44.30;;;9.12;31.35;100868.91;4950474;28;20070;-55
2021/03/20 10:31:38;;;;;;;4.22;0.65;;;9.50;44.30;;;9.26;31.78;100869.41;4948709;28;20178;-55
2021/03/20 10:34:10;;;;;;;1.50;0.60;;;9.50;44.00;;;9.73;30.97;100872.44;4949138;29;20035;-49
2021/03/20 10:36:49;;;;;;;1.48;0.70;;;10.00;43.70;;;9.41;30.73;100879.50;4950156;28;20370;-55
2021/03/20 10:39:28;;;;;;;1.30;0.50;;;9.80;43.70;;;9.78;30.51;100875.47;4950245;28;20078;-60
2021/03/20 10:42:00;;;;;;;1.58;0.57;;;10.00;43.70;;;9.71;30.86;100865.72;4950261;28;20043;-54
2021/03/20 10:44:38;;;;;;;0.90;0.50;;;10.10;43.40;;;9.76;31.76;100863.56;4950101;28;20039;-56
2021/03/20 10:47:37;;;;;;;1.85;0.98;;;10.10;43.80;;;9.99;29.83;100859.81;4949832;28;20078;-53
2021/03/20 10:50:06;;;;;;;1.67;0.65;;;10.30;43.10;;;10.07;31.16;100857.38;4926685;29;20440;-54
2021/03/20 10:52:40;;;;;;;1.77;0.68;;;10.40;43.70;;;10.56;29.77;100855.75;4947967;29;20070;-58
2021/03/20 10:55:28;;;;;;;1.38;0.80;;;10.80;42.90;;;10.69;28.88;100856.31;4950327;28;20031;-55
2021/03/20 10:57:56;;;;;;;1.67;0.70;;;11.00;42.40;;;10.95;30.24;100848.75;4950065;28;20051;-52
2021/03/20 11:00:37;;;;;;;2.40;1.20;;;11.10;42.90;;;11.05;31.20;100840.94;4950461;28;20031;-47
2021/03/20 11:03:42;;;;;;;1.25;0.80;;;11.30;44.80;;;11.06;28.33;100834.78;4949880;28;20035;-55
2021/03/20 11:06:19;;;;;;;2.10;0.77;;;11.40;43.60;;;11.31;30.89;100839.41;4950020;28;20046;-56
2021/03/20 11:09:04;;;;;;;1.77;1.05;;;11.50;43.90;;;11.57;32.19;100835.22;4948877;28;20043;-57
2021/03/20 11:11:34;;;;;;;1.92;0.88;;;11.90;45.40;;;11.32;32.79;100825.41;4949842;28;20089;-54
2021/03/20 11:14:09;;;;;;;1.83;0.82;;;11.70;46.00;;;11.50;30.52;100823.69;4948675;29;20040;-51
2021/03/20 11:16:48;;;;;;;2.23;1.10;;;11.90;43.90;;;11.83;30.80;100830.19;4947926;28;20055;-56
2021/03/20 11:19:24;;;;;;;1.50;0.75;;;12.00;44.60;;;11.31;28.64;100815.94;4965410;28;20034;-52
2021/03/20 11:21:58;;;;;;;1.50;0.70;;;11.70;41.00;;;11.36;28.33;100810.28;4931671;28;20575;-55